sensor_id;sensor_type;location;lat;lon;timestamp;pressure;altitude;pressure_sealevel;temperature;humidity
63321;BME280;49449;48.800;9.534;2023-08-17T00:00:32;98676.63;;;21.08;45.42
63321;BME280;49449;48.800;9.534;2023-08-17T00:03:00;98685.06;;;21.02;45.55
63321;BME280;49449;48.800;9.534;2023-08-17T00:05:29;98690.44;;;21.02;45.27
63321;BME280;49449;48.800;9.534;2023-08-17T00:07:59;98676.41;;;21.05;45.00
63321;BME280;49449;48.800;9.534;2023-08-17T00:10:28;98683.25;;;20.97;45.19
63321;BME280;49449;48.800;9.534;2023-08-17T00:12:55;98677.88;;;20.97;45.19
63321;BME280;49449;48.800;9.534;2023-08-17T00:15:23;98684.84;;;20.98;45.26
63321;BME280;49449;48.800;9.534;2023-08-17T00:17:51;98677.56;;;20.98;45.30
63321;BME280;49449;48.800;9.534;2023-08-17T00:20:19;98673.69;;;20.91;45.44
63321;BME280;49449;48.800;9.534;2023-08-17T00:22:48;98672.13;;;20.85;45.24
63321;BME280;49449;48.800;9.534;2023-08-17T00:25:16;98674.31;;;20.83;45.45
63321;BME280;49449;48.800;9.534;2023-08-17T00:27:43;98677.81;;;20.83;45.39
63321;BME280;49449;48.800;9.534;2023-08-17T00:30:12;98682.16;;;20.79;45.39
63321;BME280;49449;48.800;9.534;2023-08-17T00:32:40;98684.34;;;20.77;45.68
63321;BME280;49449;48.800;9.534;2023-08-17T00:35:08;98675.91;;;20.84;45.53
63321;BME280;49449;48.800;9.534;2023-08-17T00:37:36;98679.69;;;20.83;45.31
63321;BME280;49449;48.800;9.534;2023-08-17T00:40:06;98669.91;;;20.73;45.29
63321;BME280;49449;48.800;9.534;2023-08-17T00:42:34;98670.28;;;20.66;45.86
63321;BME280;49449;48.800;9.534;2023-08-17T00:45:02;98665.91;;;20.70;45.58
63321;BME280;49449;48.800;9.534;2023-08-17T00:47:30;98665.84;;;20.75;45.45
63321;BME280;49449;48.800;9.534;2023-08-17T00:49:59;98663.94;;;20.76;45.35
63321;BME280;49449;48.800;9.534;2023-08-17T00:52:27;98667.00;;;20.69;45.50
63321;BME280;49449;48.800;9.534;2023-08-17T00:54:56;98660.53;;;20.70;45.24
63321;BME280;49449;48.800;9.534;2023-08-17T00:57:26;98658.88;;;20.74;45.14
63321;BME280;49449;48.800;9.534;2023-08-17T00:59:54;98659.09;;;20.78;45.10
63321;BME280;49449;48.800;9.534;2023-08-17T01:02:29;98661.16;;;20.81;45.11
63321;BME280;49449;48.800;9.534;2023-08-17T01:04:57;98660.88;;;20.83;45.39
63321;BME280;49449;48.800;9.534;2023-08-17T01:07:25;98654.94;;;20.86;45.29
63321;BME280;49449;48.800;9.534;2023-08-17T01:09:53;98649.56;;;20.86;45.36
63321;BME280;49449;48.800;9.534;2023-08-17T01:12:28;98657.63;;;20.86;45.29
63321;BME280;49449;48.800;9.534;2023-08-17T01:15:03;98652.25;;;20.86;45.65
63321;BME280;49449;48.800;9.534;2023-08-17T01:17:33;98644.41;;;20.89;45.74
63321;BME280;49449;48.800;9.534;2023-08-17T01:20:08;98634.72;;;20.74;45.46
63321;BME280;49449;48.800;9.534;2023-08-17T01:22:41;98638.72;;;20.58;45.25
63321;BME280;49449;48.800;9.534;2023-08-17T01:25:10;98650.13;;;20.50;45.40
63321;BME280;49449;48.800;9.534;2023-08-17T01:27:39;98647.66;;;20.53;45.29
63321;BME280;49449;48.800;9.534;2023-08-17T01:30:08;98646.25;;;20.56;45.36
63321;BME280;49449;48.800;9.534;2023-08-17T01:32:39;98658.31;;;20.58;45.47
63321;BME280;49449;48.800;9.534;2023-08-17T01:35:14;98649.09;;;20.46;45.59
63321;BME280;49449;48.800;9.534;2023-08-17T01:37:43;98641.03;;;20.46;45.49
63321;BME280;49449;48.800;9.534;2023-08-17T01:40:13;98641.84;;;20.46;45.31
63321;BME280;49449;48.800;9.534;2023-08-17T01:42:42;98639.25;;;20.41;45.61
63321;BME280;49449;48.800;9.534;2023-08-17T01:45:11;98642.16;;;20.45;45.49
63321;BME280;49449;48.800;9.534;2023-08-17T01:47:39;98635.97;;;20.44;45.25
63321;BME280;49449;48.800;9.534;2023-08-17T01:50:07;98643.44;;;20.47;45.13
63321;BME280;49449;48.800;9.534;2023-08-17T01:52:35;98641.47;;;20.53;45.06
63321;BME280;49449;48.800;9.534;2023-08-17T01:55:04;98645.25;;;20.52;45.11
63321;BME280;49449;48.800;9.534;2023-08-17T01:57:33;98637.28;;;20.47;45.15
63321;BME280;49449;48.800;9.534;2023-08-17T02:00:03;98632.56;;;20.38;45.36
63321;BME280;49449;48.800;9.534;2023-08-17T02:02:31;98632.69;;;20.28;45.44
63321;BME280;49449;48.800;9.534;2023-08-17T02:04:59;98636.59;;;20.17;45.46
63321;BME280;49449;48.800;9.534;2023-08-17T02:07:27;98634.75;;;20.12;45.94
63321;BME280;49449;48.800;9.534;2023-08-17T02:09:55;98622.69;;;20.15;45.51
63321;BME280;49449;48.800;9.534;2023-08-17T02:12:22;98631.22;;;20.17;45.65
63321;BME280;49449;48.800;9.534;2023-08-17T02:14:52;98629.56;;;20.21;45.62
63321;BME280;49449;48.800;9.534;2023-08-17T02:17:19;98625.56;;;20.18;45.97
63321;BME280;49449;48.800;9.534;2023-08-17T02:19:49;98618.81;;;20.21;45.98
63321;BME280;49449;48.800;9.534;2023-08-17T02:22:16;98625.50;;;20.23;45.96
63321;BME280;49449;48.800;9.534;2023-08-17T02:24:46;98626.88;;;20.21;46.19
63321;BME280;49449;48.800;9.534;2023-08-17T02:27:14;98624.41;;;20.24;46.27
63321;BME280;49449;48.800;9.534;2023-08-17T02:29:42;98617.72;;;20.27;46.04
63321;BME280;49449;48.800;9.534;2023-08-17T02:32:11;98618.50;;;20.28;45.93
63321;BME280;49449;48.800;9.534;2023-08-17T02:34:39;98617.72;;;20.27;45.67
63321;BME280;49449;48.800;9.534;2023-08-17T02:37:07;98613.91;;;20.28;45.77
63321;BME280;49449;48.800;9.534;2023-08-17T02:39:34;98610.72;;;20.26;45.82
63321;BME280;49449;48.800;9.534;2023-08-17T02:42:03;98604.00;;;20.29;45.77
63321;BME280;49449;48.800;9.534;2023-08-17T02:44:30;98609.66;;;20.27;46.06
63321;BME280;49449;48.800;9.534;2023-08-17T02:46:58;98613.69;;;20.24;46.12
63321;BME280;49449;48.800;9.534;2023-08-17T02:49:27;98603.47;;;20.27;46.17
63321;BME280;49449;48.800;9.534;2023-08-17T02:51:55;98609.66;;;20.27;46.10
63321;BME280;49449;48.800;9.534;2023-08-17T02:54:23;98600.25;;;20.24;46.21
63321;BME280;49449;48.800;9.534;2023-08-17T02:56:51;98605.13;;;20.22;46.24
63321;BME280;49449;48.800;9.534;2023-08-17T02:59:19;98607.53;;;20.24;46.05
63321;BME280;49449;48.800;9.534;2023-08-17T03:01:46;98592.50;;;20.23;46.03
63321;BME280;49449;48.800;9.534;2023-08-17T03:04:14;98603.00;;;20.19;46.38
63321;BME280;49449;48.800;9.534;2023-08-17T03:06:43;98590.94;;;20.22;46.18
63321;BME280;49449;48.800;9.534;2023-08-17T03:09:13;98587.38;;;20.27;46.25
63321;BME280;49449;48.800;9.534;2023-08-17T03:11:41;98589.25;;;20.26;46.26
63321;BME280;49449;48.800;9.534;2023-08-17T03:14:09;98590.34;;;20.25;46.01
63321;BME280;49449;48.800;9.534;2023-08-17T03:16:39;98586.56;;;20.26;46.23
63321;BME280;49449;48.800;9.534;2023-08-17T03:19:07;98585.53;;;20.27;46.08
63321;BME280;49449;48.800;9.534;2023-08-17T03:21:37;98582.84;;;20.27;46.25
63321;BME280;49449;48.800;9.534;2023-08-17T03:24:07;98578.31;;;20.22;46.59
63321;BME280;49449;48.800;9.534;2023-08-17T03:26:35;98579.69;;;20.20;46.71
63321;BME280;49449;48.800;9.534;2023-08-17T03:29:03;98579.75;;;20.15;46.30
63321;BME280;49449;48.800;9.534;2023-08-17T03:31:31;98585.56;;;20.03;46.70
63321;BME280;49449;48.800;9.534;2023-08-17T03:33:58;98583.28;;;19.91;47.00
63321;BME280;49449;48.800;9.534;2023-08-17T03:36:27;98584.22;;;19.81;47.57
63321;BME280;49449;48.800;9.534;2023-08-17T03:38:55;98582.63;;;19.61;47.84
63321;BME280;49449;48.800;9.534;2023-08-17T03:41:25;98576.38;;;19.66;47.93
63321;BME280;49449;48.800;9.534;2023-08-17T03:43:52;98574.13;;;19.73;47.93
63321;BME280;49449;48.800;9.534;2023-08-17T03:46:20;98575.81;;;19.69;47.69
63321;BME280;49449;48.800;9.534;2023-08-17T03:48:48;98573.72;;;19.61;48.02
63321;BME280;49449;48.800;9.534;2023-08-17T03:51:16;98576.69;;;19.59;47.90
63321;BME280;49449;48.800;9.534;2023-08-17T03:53:43;98584.63;;;19.70;47.74
63321;BME280;49449;48.800;9.534;2023-08-17T03:56:11;98588.59;;;19.77;47.71
63321;BME280;49449;48.800;9.534;2023-08-17T03:58:40;98588.22;;;19.84;47.20
63321;BME280;49449;48.800;9.534;2023-08-17T04:01:10;98594.66;;;19.83;47.45
63321;BME280;49449;48.800;9.534;2023-08-17T04:03:39;98606.41;;;19.87;47.65
63321;BME280;49449;48.800;9.534;2023-08-17T04:06:08;98606.63;;;19.91;47.39
63321;BME280;49449;48.800;9.534;2023-08-17T04:08:36;98609.81;;;19.93;47.33
63321;BME280;49449;48.800;9.534;2023-08-17T04:11:05;98611.94;;;19.96;47.39
63321;BME280;49449;48.800;9.534;2023-08-17T04:13:33;98613.81;;;19.95;47.13
63321;BME280;49449;48.800;9.534;2023-08-17T04:16:02;98612.72;;;19.96;47.25
63321;BME280;49449;48.800;9.534;2023-08-17T04:18:30;98618.06;;;19.96;47.10
63321;BME280;49449;48.800;9.534;2023-08-17T04:20:58;98609.88;;;19.88;47.18
63321;BME280;49449;48.800;9.534;2023-08-17T04:23:26;98617.63;;;19.89;47.75
63321;BME280;49449;48.800;9.534;2023-08-17T04:25:53;98619.75;;;19.92;48.15
63321;BME280;49449;48.800;9.534;2023-08-17T04:28:22;98617.50;;;19.99;47.94
63321;BME280;49449;48.800;9.534;2023-08-17T04:30:50;98623.25;;;20.12;47.66
63321;BME280;49449;48.800;9.534;2023-08-17T04:33:19;98621.00;;;20.19;47.11
63321;BME280;49449;48.800;9.534;2023-08-17T04:35:47;98631.66;;;20.24;46.96
63321;BME280;49449;48.800;9.534;2023-08-17T04:38:15;98625.19;;;20.30;47.14
63321;BME280;49449;48.800;9.534;2023-08-17T04:40:43;98628.66;;;20.31;47.03
63321;BME280;49449;48.800;9.534;2023-08-17T04:43:13;98635.25;;;20.38;46.68
63321;BME280;49449;48.800;9.534;2023-08-17T04:45:41;98635.97;;;20.44;46.65
63321;BME280;49449;48.800;9.534;2023-08-17T04:48:09;98644.81;;;20.45;46.67
63321;BME280;49449;48.800;9.534;2023-08-17T04:50:38;98631.63;;;20.48;46.95
63321;BME280;49449;48.800;9.534;2023-08-17T04:53:06;98643.16;;;20.49;46.75
63321;BME280;49449;48.800;9.534;2023-08-17T04:55:34;98642.16;;;20.45;46.78
63321;BME280;49449;48.800;9.534;2023-08-17T04:58:02;98642.50;;;20.38;46.55
63321;BME280;49449;48.800;9.534;2023-08-17T05:00:29;98639.09;;;20.32;46.90
63321;BME280;49449;48.800;9.534;2023-08-17T05:02:57;98644.19;;;20.34;46.72
63321;BME280;49449;48.800;9.534;2023-08-17T05:05:25;98642.91;;;20.26;46.69
63321;BME280;49449;48.800;9.534;2023-08-17T05:07:54;98640.78;;;20.23;47.00
63321;BME280;49449;48.800;9.534;2023-08-17T05:10:22;98635.19;;;20.19;47.34
63321;BME280;49449;48.800;9.534;2023-08-17T05:12:50;98637.09;;;20.19;47.02
63321;BME280;49449;48.800;9.534;2023-08-17T05:15:18;98632.22;;;20.21;46.96
63321;BME280;49449;48.800;9.534;2023-08-17T05:17:46;98637.59;;;20.21;47.28
63321;BME280;49449;48.800;9.534;2023-08-17T05:20:13;98644.06;;;20.20;47.14
63321;BME280;49449;48.800;9.534;2023-08-17T05:22:42;98641.88;;;20.22;47.21
63321;BME280;49449;48.800;9.534;2023-08-17T05:25:11;98637.59;;;20.21;46.93
63321;BME280;49449;48.800;9.534;2023-08-17T05:27:39;98636.03;;;20.20;46.88
63321;BME280;49449;48.800;9.534;2023-08-17T05:30:07;98636.25;;;20.23;47.21
63321;BME280;49449;48.800;9.534;2023-08-17T05:32:35;98640.47;;;20.30;47.41
63321;BME280;49449;48.800;9.534;2023-08-17T05:35:04;98643.13;;;20.30;47.48
63321;BME280;49449;48.800;9.534;2023-08-17T05:37:31;98637.78;;;20.30;47.47
63321;BME280;49449;48.800;9.534;2023-08-17T05:39:59;98637.50;;;20.31;47.63
63321;BME280;49449;48.800;9.534;2023-08-17T05:42:28;98639.38;;;20.31;47.46
63321;BME280;49449;48.800;9.534;2023-08-17T05:44:56;98645.53;;;20.31;47.38
63321;BME280;49449;48.800;9.534;2023-08-17T05:47:24;98649.53;;;20.34;47.42
63321;BME280;49449;48.800;9.534;2023-08-17T05:49:52;98649.22;;;20.35;47.55
63321;BME280;49449;48.800;9.534;2023-08-17T05:52:20;98645.69;;;20.40;47.63
63321;BME280;49449;48.800;9.534;2023-08-17T05:54:48;98646.47;;;20.40;47.54
63321;BME280;49449;48.800;9.534;2023-08-17T05:57:15;98647.00;;;20.42;47.41
63321;BME280;49449;48.800;9.534;2023-08-17T05:59:45;98652.88;;;20.45;47.44
63321;BME280;49449;48.800;9.534;2023-08-17T06:02:12;98654.47;;;20.46;47.26
63321;BME280;49449;48.800;9.534;2023-08-17T06:04:40;98653.44;;;20.41;47.58
63321;BME280;49449;48.800;9.534;2023-08-17T06:07:08;98660.44;;;20.42;47.40
63321;BME280;49449;48.800;9.534;2023-08-17T06:09:36;98670.84;;;20.44;47.27
63321;BME280;49449;48.800;9.534;2023-08-17T06:12:05;98661.16;;;20.48;47.29
63321;BME280;49449;48.800;9.534;2023-08-17T06:14:33;98657.75;;;20.42;47.42
63321;BME280;49449;48.800;9.534;2023-08-17T06:17:03;98655.63;;;20.39;47.41
63321;BME280;49449;48.800;9.534;2023-08-17T06:19:30;98652.13;;;20.39;47.62
63321;BME280;49449;48.800;9.534;2023-08-17T06:21:58;98658.03;;;20.41;47.66
63321;BME280;49449;48.800;9.534;2023-08-17T06:24:26;98660.09;;;20.44;47.60
63321;BME280;49449;48.800;9.534;2023-08-17T06:26:54;98662.00;;;20.43;47.64
63321;BME280;49449;48.800;9.534;2023-08-17T06:29:22;98666.78;;;20.47;47.30
63321;BME280;49449;48.800;9.534;2023-08-17T06:31:49;98665.69;;;20.48;47.31
63321;BME280;49449;48.800;9.534;2023-08-17T06:34:18;98670.78;;;20.49;47.33
63321;BME280;49449;48.800;9.534;2023-08-17T06:36:56;98664.53;;;20.54;47.44
63321;BME280;49449;48.800;9.534;2023-08-17T06:39:24;98665.53;;;20.58;46.98
63321;BME280;49449;48.800;9.534;2023-08-17T06:41:52;98664.47;;;20.59;46.83
63321;BME280;49449;48.800;9.534;2023-08-17T06:44:20;98664.97;;;20.61;46.86
63321;BME280;49449;48.800;9.534;2023-08-17T06:46:48;98664.41;;;20.64;46.86
63321;BME280;49449;48.800;9.534;2023-08-17T06:49:16;98670.56;;;20.65;46.98
63321;BME280;49449;48.800;9.534;2023-08-17T06:51:45;98667.88;;;20.65;46.78
63321;BME280;49449;48.800;9.534;2023-08-17T06:54:13;98667.88;;;20.65;46.87
63321;BME280;49449;48.800;9.534;2023-08-17T06:56:41;98659.25;;;20.68;47.11
63321;BME280;49449;48.800;9.534;2023-08-17T06:59:09;98655.75;;;20.67;47.08
63321;BME280;49449;48.800;9.534;2023-08-17T07:01:37;98665.03;;;20.75;46.95
63321;BME280;49449;48.800;9.534;2023-08-17T07:04:05;98660.88;;;20.83;46.53
63321;BME280;49449;48.800;9.534;2023-08-17T07:06:34;98671.34;;;20.84;46.45
63321;BME280;49449;48.800;9.534;2023-08-17T07:09:03;98666.97;;;20.88;46.42
63321;BME280;49449;48.800;9.534;2023-08-17T07:11:32;98674.19;;;20.93;46.39
63321;BME280;49449;48.800;9.534;2023-08-17T07:14:00;98671.72;;;20.96;46.44
63321;BME280;49449;48.800;9.534;2023-08-17T07:16:27;98671.13;;;20.99;46.35
63321;BME280;49449;48.800;9.534;2023-08-17T07:18:55;98674.31;;;21.02;46.05
63321;BME280;49449;48.800;9.534;2023-08-17T07:21:23;98676.13;;;21.06;45.90
63321;BME280;49449;48.800;9.534;2023-08-17T07:23:51;98676.84;;;21.12;46.08
63321;BME280;49449;48.800;9.534;2023-08-17T07:26:20;98682.91;;;21.17;46.37
63321;BME280;49449;48.800;9.534;2023-08-17T07:28:49;98676.38;;;21.24;46.02
63321;BME280;49449;48.800;9.534;2023-08-17T07:31:17;98676.25;;;21.29;45.75
63321;BME280;49449;48.800;9.534;2023-08-17T07:33:45;98671.41;;;21.31;45.91
63321;BME280;49449;48.800;9.534;2023-08-17T07:36:12;98663.75;;;21.38;45.72
63321;BME280;49449;48.800;9.534;2023-08-17T07:38:40;98666.84;;;21.45;45.64
63321;BME280;49449;48.800;9.534;2023-08-17T07:41:08;98670.97;;;21.57;45.36
63321;BME280;49449;48.800;9.534;2023-08-17T07:43:37;98669.06;;;21.71;45.64
63321;BME280;49449;48.800;9.534;2023-08-17T07:46:05;98669.19;;;21.80;45.02
63321;BME280;49449;48.800;9.534;2023-08-17T07:48:33;98663.91;;;21.88;45.16
63321;BME280;49449;48.800;9.534;2023-08-17T07:51:01;98658.13;;;21.95;45.12
63321;BME280;49449;48.800;9.534;2023-08-17T07:53:28;98653.22;;;21.97;44.83
63321;BME280;49449;48.800;9.534;2023-08-17T07:55:56;98663.69;;;21.99;44.90
63321;BME280;49449;48.800;9.534;2023-08-17T07:58:24;98659.31;;;22.03;44.75
63321;BME280;49449;48.800;9.534;2023-08-17T08:00:53;98657.63;;;22.07;44.64
63321;BME280;49449;48.800;9.534;2023-08-17T08:03:21;98667.38;;;22.03;44.35
63321;BME280;49449;48.800;9.534;2023-08-17T08:05:48;98663.19;;;22.10;44.40
63321;BME280;49449;48.800;9.534;2023-08-17T08:08:16;98663.69;;;22.12;44.62
63321;BME280;49449;48.800;9.534;2023-08-17T08:10:44;98663.59;;;22.18;44.62
63321;BME280;49449;48.800;9.534;2023-08-17T08:13:12;98660.63;;;22.19;44.37
63321;BME280;49449;48.800;9.534;2023-08-17T08:15:42;98658.91;;;22.23;44.79
63321;BME280;49449;48.800;9.534;2023-08-17T08:18:11;98659.69;;;22.24;44.44
63321;BME280;49449;48.800;9.534;2023-08-17T08:20:39;98646.63;;;22.31;43.99
63321;BME280;49449;48.800;9.534;2023-08-17T08:23:06;98653.19;;;22.39;44.51
63321;BME280;49449;48.800;9.534;2023-08-17T08:25:34;98647.06;;;22.47;43.84
63321;BME280;49449;48.800;9.534;2023-08-17T08:28:02;98656.53;;;22.58;43.60
63321;BME280;49449;48.800;9.534;2023-08-17T08:30:30;98653.25;;;22.70;43.56
63321;BME280;49449;48.800;9.534;2023-08-17T08:32:58;98654.88;;;22.71;43.52
63321;BME280;49449;48.800;9.534;2023-08-17T08:35:27;98659.94;;;22.73;43.53
63321;BME280;49449;48.800;9.534;2023-08-17T08:37:55;98644.25;;;22.89;43.71
63321;BME280;49449;48.800;9.534;2023-08-17T08:40:27;98649.44;;;23.08;43.26
63321;BME280;49449;48.800;9.534;2023-08-17T08:42:56;98646.50;;;23.27;42.54
63321;BME280;49449;48.800;9.534;2023-08-17T08:45:24;98647.72;;;23.34;42.42
63321;BME280;49449;48.800;9.534;2023-08-17T08:47:53;98651.53;;;23.42;42.19
63321;BME280;49449;48.800;9.534;2023-08-17T08:50:25;98649.69;;;23.60;41.96
63321;BME280;49449;48.800;9.534;2023-08-17T08:52:59;98642.13;;;23.71;41.95
63321;BME280;49449;48.800;9.534;2023-08-17T08:55:29;98643.13;;;23.84;42.11
63321;BME280;49449;48.800;9.534;2023-08-17T08:57:59;98633.19;;;24.10;41.90
63321;BME280;49449;48.800;9.534;2023-08-17T09:00:28;98641.47;;;24.40;41.10
63321;BME280;49449;48.800;9.534;2023-08-17T09:02:57;98629.41;;;24.64;40.84
63321;BME280;49449;48.800;9.534;2023-08-17T09:05:25;98630.84;;;24.87;41.14
63321;BME280;49449;48.800;9.534;2023-08-17T09:07:55;98631.91;;;25.04;40.04
63321;BME280;49449;48.800;9.534;2023-08-17T09:10:24;98637.91;;;25.27;39.61
63321;BME280;49449;48.800;9.534;2023-08-17T09:12:52;98637.88;;;25.36;39.22
63321;BME280;49449;48.800;9.534;2023-08-17T09:15:20;98638.91;;;25.52;38.74
63321;BME280;49449;48.800;9.534;2023-08-17T09:17:48;98647.09;;;25.73;39.02
63321;BME280;49449;48.800;9.534;2023-08-17T09:20:34;98642.34;;;25.70;38.72
63321;BME280;49449;48.800;9.534;2023-08-17T09:23:04;98634.41;;;25.95;38.59
63321;BME280;49449;48.800;9.534;2023-08-17T09:25:38;98637.81;;;26.13;37.61
63321;BME280;49449;48.800;9.534;2023-08-17T09:28:07;98630.31;;;26.18;37.86
63321;BME280;49449;48.800;9.534;2023-08-17T09:30:54;98637.34;;;26.32;38.33
63321;BME280;49449;48.800;9.534;2023-08-17T09:33:23;98624.81;;;26.48;37.71
63321;BME280;49449;48.800;9.534;2023-08-17T09:35:53;98615.09;;;26.68;37.52
63321;BME280;49449;48.800;9.534;2023-08-17T09:38:25;98622.09;;;26.69;37.23
63321;BME280;49449;48.800;9.534;2023-08-17T09:40:53;98622.72;;;26.87;37.89
63321;BME280;49449;48.800;9.534;2023-08-17T09:43:21;98618.78;;;26.97;37.47
63321;BME280;49449;48.800;9.534;2023-08-17T09:45:50;98619.00;;;27.04;37.04
63321;BME280;49449;48.800;9.534;2023-08-17T09:48:20;98615.78;;;27.23;36.62
63321;BME280;49449;48.800;9.534;2023-08-17T09:50:48;98612.88;;;27.28;36.30
63321;BME280;49449;48.800;9.534;2023-08-17T09:53:17;98609.94;;;27.21;36.41
63321;BME280;49449;48.800;9.534;2023-08-17T09:55:47;98611.97;;;27.36;36.74
63321;BME280;49449;48.800;9.534;2023-08-17T09:58:15;98602.81;;;27.41;36.30
63321;BME280;49449;48.800;9.534;2023-08-17T10:00:44;98604.84;;;27.56;35.99
63321;BME280;49449;48.800;9.534;2023-08-17T10:03:16;98596.59;;;27.65;35.57
63321;BME280;49449;48.800;9.534;2023-08-17T10:05:48;98589.25;;;27.78;35.28
63321;BME280;49449;48.800;9.534;2023-08-17T10:08:20;98589.13;;;27.87;35.48
63321;BME280;49449;48.800;9.534;2023-08-17T10:10:50;98591.56;;;28.04;35.96
63321;BME280;49449;48.800;9.534;2023-08-17T10:13:27;98586.53;;;28.19;35.33
63321;BME280;49449;48.800;9.534;2023-08-17T10:16:02;98584.06;;;28.13;34.66
63321;BME280;49449;48.800;9.534;2023-08-17T10:18:37;98581.81;;;28.16;35.41
63321;BME280;49449;48.800;9.534;2023-08-17T10:21:07;98588.47;;;28.30;35.16
63321;BME280;49449;48.800;9.534;2023-08-17T10:23:37;98582.47;;;28.25;34.39
63321;BME280;49449;48.800;9.534;2023-08-17T10:26:09;98590.16;;;28.35;34.76
63321;BME280;49449;48.800;9.534;2023-08-17T10:28:38;98583.94;;;28.50;35.33
63321;BME280;49449;48.800;9.534;2023-08-17T10:31:07;98582.06;;;28.67;34.91
63321;BME280;49449;48.800;9.534;2023-08-17T10:33:37;98583.75;;;28.87;35.21
63321;BME280;49449;48.800;9.534;2023-08-17T10:36:08;98573.97;;;28.99;34.23
63321;BME280;49449;48.800;9.534;2023-08-17T10:38:36;98571.78;;;29.04;35.15
63321;BME280;49449;48.800;9.534;2023-08-17T10:41:09;98575.69;;;29.07;34.30
63321;BME280;49449;48.800;9.534;2023-08-17T10:43:56;98577.91;;;29.01;34.54
63321;BME280;49449;48.800;9.534;2023-08-17T10:46:34;98567.44;;;29.19;34.36
63321;BME280;49449;48.800;9.534;2023-08-17T10:49:07;98575.63;;;29.35;33.47
63321;BME280;49449;48.800;9.534;2023-08-17T10:52:02;98575.44;;;29.44;33.98
63321;BME280;49449;48.800;9.534;2023-08-17T10:54:36;98572.78;;;29.48;33.28
63321;BME280;49449;48.800;9.534;2023-08-17T10:57:27;98570.50;;;29.50;33.61
63321;BME280;49449;48.800;9.534;2023-08-17T11:00:13;98564.00;;;29.54;33.43
63321;BME280;49449;48.800;9.534;2023-08-17T11:02:51;98569.34;;;29.67;33.59
63321;BME280;49449;48.800;9.534;2023-08-17T11:05:41;98572.25;;;29.58;33.57
63321;BME280;49449;48.800;9.534;2023-08-17T11:08:10;98563.81;;;29.63;33.47
63321;BME280;49449;48.800;9.534;2023-08-17T11:10:47;98555.34;;;29.49;33.08
63321;BME280;49449;48.800;9.534;2023-08-17T11:13:16;98550.06;;;29.56;33.24
63321;BME280;49449;48.800;9.534;2023-08-17T11:15:44;98553.34;;;29.65;33.13
63321;BME280;49449;48.800;9.534;2023-08-17T11:18:14;98553.34;;;29.65;33.20
63321;BME280;49449;48.800;9.534;2023-08-17T11:20:42;98545.03;;;29.58;33.44
63321;BME280;49449;48.800;9.534;2023-08-17T11:23:11;98544.34;;;29.61;33.33
63321;BME280;49449;48.800;9.534;2023-08-17T11:25:39;98542.59;;;29.53;33.43
63321;BME280;49449;48.800;9.534;2023-08-17T11:28:08;98539.88;;;29.53;33.49
63321;BME280;49449;48.800;9.534;2023-08-17T11:30:38;98535.34;;;29.41;33.46
63321;BME280;49449;48.800;9.534;2023-08-17T11:33:06;98533.56;;;29.49;33.82
63321;BME280;49449;48.800;9.534;2023-08-17T11:35:35;98526.25;;;29.53;33.03
63321;BME280;49449;48.800;9.534;2023-08-17T11:38:03;98523.13;;;29.51;32.24
63321;BME280;49449;48.800;9.534;2023-08-17T11:40:34;98513.22;;;29.42;33.42
63321;BME280;49449;48.800;9.534;2023-08-17T11:43:02;98512.94;;;29.48;33.21
63321;BME280;49449;48.800;9.534;2023-08-17T11:45:31;98509.72;;;29.42;33.11
63321;BME280;49449;48.800;9.534;2023-08-17T11:48:01;98515.22;;;29.46;33.53
63321;BME280;49449;48.800;9.534;2023-08-17T11:50:30;98520.59;;;29.42;33.32
63321;BME280;49449;48.800;9.534;2023-08-17T11:52:59;98520.94;;;29.40;32.71
63321;BME280;49449;48.800;9.534;2023-08-17T11:55:27;98518.59;;;29.23;32.74
63321;BME280;49449;48.800;9.534;2023-08-17T11:57:55;98523.44;;;29.30;33.19
63321;BME280;49449;48.800;9.534;2023-08-17T12:00:23;98518.19;;;29.21;33.71
63321;BME280;49449;48.800;9.534;2023-08-17T12:02:52;98519.41;;;29.23;33.12
63321;BME280;49449;48.800;9.534;2023-08-17T12:05:23;98515.09;;;29.22;32.34
63321;BME280;49449;48.800;9.534;2023-08-17T12:07:52;98523.84;;;29.16;32.72
63321;BME280;49449;48.800;9.534;2023-08-17T12:10:20;98530.22;;;29.20;33.33
63321;BME280;49449;48.800;9.534;2023-08-17T12:12:49;98532.94;;;29.20;33.88
63321;BME280;49449;48.800;9.534;2023-08-17T12:15:17;98534.22;;;29.26;33.78
63321;BME280;49449;48.800;9.534;2023-08-17T12:17:46;98533.88;;;29.28;32.93
63321;BME280;49449;48.800;9.534;2023-08-17T12:20:17;98532.75;;;29.13;32.89
63321;BME280;49449;48.800;9.534;2023-08-17T12:22:47;98534.72;;;29.16;32.95
63321;BME280;49449;48.800;9.534;2023-08-17T12:25:15;98529.91;;;29.09;33.28
63321;BME280;49449;48.800;9.534;2023-08-17T12:27:47;98532.00;;;29.16;33.48
63321;BME280;49449;48.800;9.534;2023-08-17T12:30:24;98527.41;;;29.00;33.67
63321;BME280;49449;48.800;9.534;2023-08-17T12:32:52;98524.56;;;28.81;33.66
63321;BME280;49449;48.800;9.534;2023-08-17T12:35:21;98522.13;;;28.76;33.91
63321;BME280;49449;48.800;9.534;2023-08-17T12:37:52;98522.63;;;28.65;33.95
63321;BME280;49449;48.800;9.534;2023-08-17T12:40:21;98522.09;;;28.60;33.91
63321;BME280;49449;48.800;9.534;2023-08-17T12:42:49;98526.69;;;28.43;34.33
63321;BME280;49449;48.800;9.534;2023-08-17T12:45:17;98530.47;;;28.39;34.40
63321;BME280;49449;48.800;9.534;2023-08-17T12:47:45;98526.75;;;28.31;34.02
63321;BME280;49449;48.800;9.534;2023-08-17T12:50:14;98525.00;;;28.23;33.81
63321;BME280;49449;48.800;9.534;2023-08-17T12:52:43;98522.66;;;28.09;33.91
63321;BME280;49449;48.800;9.534;2023-08-17T12:55:14;98542.84;;;27.96;33.99
63321;BME280;49449;48.800;9.534;2023-08-17T12:57:42;98559.25;;;27.87;34.25
63321;BME280;49449;48.800;9.534;2023-08-17T13:00:10;98559.72;;;27.77;35.09
63321;BME280;49449;48.800;9.534;2023-08-17T13:02:38;98559.47;;;27.69;35.62
63321;BME280;49449;48.800;9.534;2023-08-17T13:05:06;98565.84;;;27.61;36.04
63321;BME280;49449;48.800;9.534;2023-08-17T13:07:34;98577.72;;;27.56;36.17
63321;BME280;49449;48.800;9.534;2023-08-17T13:10:02;98582.91;;;27.49;36.85